createdAt,value
2019-04-29T00:01:30.559Z,2.08
2019-04-29T00:04:00.525Z,2.12
2019-04-29T00:06:30.620Z,1.92
2019-04-29T00:09:00.560Z,1.60
2019-04-29T00:11:33.677Z,2.02
2019-04-29T00:14:03.571Z,1.50
2019-04-29T00:16:39.863Z,2.67
2019-04-29T00:19:19.021Z,2.40
2019-04-29T00:21:50.029Z,2.17
2019-04-29T00:24:20.865Z,1.95
2019-04-29T00:26:50.773Z,1.22
2019-04-29T00:29:20.804Z,1.37
2019-04-29T00:31:50.723Z,1.57
2019-04-29T00:34:20.965Z,1.47
2019-04-29T00:37:04.138Z,2.42
2019-04-29T00:39:57.357Z,1.75
2019-04-29T00:42:40.956Z,1.47
2019-04-29T00:45:10.974Z,1.22
2019-04-29T00:47:40.851Z,1.57
2019-04-29T00:50:12.422Z,2.00
2019-04-29T00:52:43.272Z,3.30
2019-04-29T00:55:16.096Z,1.82
2019-04-29T00:57:46.269Z,1.95
2019-04-29T01:00:25.681Z,2.10
2019-04-29T01:02:55.697Z,1.30
2019-04-29T01:05:25.835Z,1.65
2019-04-29T01:07:55.792Z,1.80
2019-04-29T01:10:25.953Z,2.00
2019-04-29T01:12:55.961Z,2.30
2019-04-29T01:15:25.817Z,1.77
2019-04-29T01:17:55.948Z,2.12
2019-04-29T01:20:25.817Z,2.25
2019-04-29T01:22:55.690Z,1.45
2019-04-29T01:25:25.789Z,1.12
2019-04-29T01:28:04.438Z,1.62
2019-04-29T01:31:09.810Z,1.62
2019-04-29T01:33:39.695Z,2.22
2019-04-29T01:36:40.998Z,2.70
2019-04-29T01:39:12.789Z,1.70
2019-04-29T01:42:00.336Z,3.62
2019-04-29T01:44:31.958Z,1.95
2019-04-29T01:47:01.825Z,2.02
2019-04-29T01:49:31.681Z,1.77
2019-04-29T01:52:02.003Z,2.02
2019-04-29T01:54:31.832Z,2.62
2019-04-29T01:57:01.794Z,1.80
2019-04-29T01:59:32.179Z,2.02
2019-04-29T02:02:01.955Z,1.47
2019-04-29T02:04:31.847Z,1.55
2019-04-29T02:07:03.424Z,2.75
2019-04-29T02:09:38.335Z,1.62
2019-04-29T02:12:08.490Z,1.87
2019-04-29T02:14:38.495Z,1.45
2019-04-29T02:17:08.515Z,1.95
2019-04-29T02:19:38.529Z,1.47
2019-04-29T02:22:12.949Z,3.10
2019-04-29T02:24:46.118Z,1.55
2019-04-29T02:27:16.060Z,1.50
2019-04-29T02:29:46.234Z,1.45
2019-04-29T02:32:16.390Z,1.50
2019-04-29T02:34:46.204Z,2.42
2019-04-29T02:37:21.090Z,2.77
2019-04-29T02:39:57.208Z,2.08
2019-04-29T02:42:34.893Z,3.00
2019-04-29T02:45:10.727Z,1.95
2019-04-29T02:47:40.569Z,2.47
2019-04-29T02:50:11.035Z,1.70
2019-04-29T02:52:40.849Z,2.55
2019-04-29T02:55:13.699Z,1.62
2019-04-29T02:57:53.056Z,1.92
2019-04-29T03:00:31.446Z,3.20
2019-04-29T03:03:14.039Z,2.90
2019-04-29T03:05:49.992Z,1.52
2019-04-29T03:08:19.845Z,2.52
2019-04-29T03:10:49.755Z,1.82
2019-04-29T03:13:19.972Z,6.92
2019-04-29T03:15:50.838Z,1.87
2019-04-29T03:18:23.397Z,2.00
2019-04-29T03:20:58.353Z,1.50
2019-04-29T03:23:28.482Z,1.70
2019-04-29T03:25:58.688Z,2.20
2019-04-29T03:28:28.769Z,2.33
2019-04-29T03:30:58.899Z,2.37
2019-04-29T03:33:29.158Z,3.08
2019-04-29T03:35:59.992Z,2.98
2019-04-29T03:38:30.101Z,4.97
2019-04-29T03:41:00.324Z,4.45
2019-04-29T03:43:30.664Z,2.67
2019-04-29T03:46:00.464Z,2.15
2019-04-29T03:48:30.283Z,3.00
2019-04-29T03:51:00.178Z,3.37
2019-04-29T03:53:30.065Z,2.40
2019-04-29T03:56:00.084Z,1.80
2019-04-29T03:58:29.876Z,2.30
2019-04-29T04:01:20.531Z,4.08
2019-04-29T04:03:55.172Z,3.87
2019-04-29T04:09:14.516Z,2.08
2019-04-29T04:11:44.445Z,3.10
2019-04-29T04:14:14.816Z,4.35
2019-04-29T04:17:19.971Z,3.37
2019-04-29T04:19:48.089Z,2.62
2019-04-29T04:22:18.060Z,3.02
2019-04-29T04:24:47.882Z,3.47
2019-04-29T04:27:17.668Z,2.67
2019-04-29T04:29:47.546Z,2.33
2019-04-29T04:32:18.764Z,2.65
2019-04-29T04:35:40.268Z,3.55
2019-04-29T04:38:10.250Z,2.50
2019-04-29T04:40:47.593Z,4.03
2019-04-29T04:43:19.463Z,2.37
2019-04-29T04:45:50.894Z,2.25
2019-04-29T04:48:20.677Z,2.00
2019-04-29T04:50:51.331Z,2.33
2019-04-29T04:53:21.299Z,2.15
2019-04-29T04:55:56.688Z,2.00
2019-04-29T04:58:26.709Z,2.00
2019-04-29T05:00:56.599Z,1.87
2019-04-29T05:03:26.560Z,3.85
2019-04-29T05:05:57.030Z,2.30
2019-04-29T05:08:26.877Z,1.70
2019-04-29T05:10:56.620Z,2.62
2019-04-29T05:13:28.711Z,1.85
2019-04-29T05:15:58.853Z,2.77
2019-04-29T05:18:28.840Z,5.97
2019-04-29T05:20:59.070Z,2.90
2019-04-29T05:23:28.969Z,2.50
2019-04-29T05:25:58.763Z,4.20
2019-04-29T05:28:28.739Z,7.53
2019-04-29T05:30:58.585Z,6.60
2019-04-29T05:33:28.722Z,4.10
2019-04-29T05:36:09.595Z,4.08
2019-04-29T05:38:55.344Z,3.75
2019-04-29T05:41:30.014Z,3.65
2019-04-29T05:44:31.798Z,4.08
2019-04-29T05:47:11.676Z,3.83
2019-04-29T05:49:49.132Z,4.65
2019-04-29T05:52:26.231Z,2.42
2019-04-29T05:54:56.419Z,3.15
2019-04-29T05:57:27.089Z,3.42
2019-04-29T05:59:57.032Z,3.15
2019-04-29T06:02:33.234Z,4.10
2019-04-29T06:04:58.702Z,2.60
2019-04-29T06:07:28.563Z,4.95
2019-04-29T06:09:58.412Z,3.25
2019-04-29T06:12:28.161Z,2.98
2019-04-29T06:14:58.455Z,2.50
2019-04-29T06:17:28.471Z,2.15
2019-04-29T06:19:58.583Z,1.85
2019-04-29T06:22:28.790Z,2.10
2019-04-29T06:24:58.628Z,2.47
2019-04-29T06:27:28.476Z,3.83
2019-04-29T06:30:02.869Z,3.30
2019-04-29T06:32:30.376Z,3.47
2019-04-29T06:35:00.658Z,3.40
2019-04-29T06:37:30.610Z,3.85
2019-04-29T06:40:00.464Z,3.30
2019-04-29T06:42:33.537Z,2.70
2019-04-29T06:45:03.963Z,3.52
2019-04-29T06:47:33.909Z,8.40
2019-04-29T06:50:04.354Z,4.83
2019-04-29T06:52:34.135Z,4.67
2019-04-29T06:55:04.661Z,3.92
2019-04-29T06:57:34.892Z,4.67
2019-04-29T07:00:05.660Z,3.50
2019-04-29T07:02:35.493Z,4.60
2019-04-29T07:05:06.478Z,5.15
2019-04-29T07:07:36.636Z,5.47
2019-04-29T07:10:06.763Z,5.08
2019-04-29T07:12:36.636Z,5.20
2019-04-29T07:15:07.548Z,3.87
2019-04-29T07:17:41.310Z,7.67
2019-04-29T07:20:12.281Z,4.67
2019-04-29T07:22:42.296Z,3.75
2019-04-29T07:25:12.217Z,3.72
2019-04-29T07:27:44.192Z,6.40
2019-04-29T07:30:14.892Z,8.48
2019-04-29T07:32:47.151Z,5.30
2019-04-29T07:35:16.738Z,5.60
2019-04-29T07:37:46.603Z,4.53
2019-04-29T07:40:17.376Z,3.35
2019-04-29T07:42:47.361Z,4.97
2019-04-29T07:45:28.148Z,5.37
2019-04-29T07:48:01.836Z,5.03
2019-04-29T07:50:30.124Z,4.12
2019-04-29T07:53:00.024Z,4.20
2019-04-29T07:55:31.001Z,5.92
2019-04-29T07:58:01.662Z,6.53
2019-04-29T08:00:35.586Z,4.60
2019-04-29T08:03:08.007Z,6.22
2019-04-29T08:05:37.931Z,6.22
2019-04-29T08:08:07.946Z,4.67
2019-04-29T08:10:52.568Z,3.87
2019-04-29T08:13:12.709Z,4.70
2019-04-29T08:15:43.625Z,5.45
2019-04-29T08:18:16.263Z,5.03
2019-04-29T08:20:46.393Z,4.20
2019-04-29T08:23:16.421Z,5.03
2019-04-29T08:25:46.693Z,3.95
2019-04-29T08:28:16.622Z,7.67
2019-04-29T08:30:47.377Z,6.25
2019-04-29T08:33:18.235Z,4.03
2019-04-29T08:35:48.128Z,5.25
2019-04-29T08:38:18.694Z,4.60
2019-04-29T08:40:49.984Z,4.83
2019-04-29T08:43:37.961Z,5.92
2019-04-29T08:46:13.701Z,3.80
2019-04-29T08:48:45.919Z,4.37
2019-04-29T08:51:15.568Z,5.62
2019-04-29T08:53:45.529Z,5.45
2019-04-29T08:56:15.495Z,6.33
2019-04-29T08:58:49.185Z,3.83
2019-04-29T09:01:17.226Z,4.95
2019-04-29T09:03:47.001Z,4.10
2019-04-29T09:06:16.860Z,3.25
2019-04-29T09:08:54.639Z,2.45
2019-04-29T09:11:19.090Z,3.27
2019-04-29T09:13:49.309Z,7.60
2019-04-29T09:16:19.531Z,6.10
2019-04-29T09:18:49.863Z,3.25
2019-04-29T09:21:19.966Z,5.87
2019-04-29T09:23:49.825Z,3.83
2019-04-29T09:26:43.251Z,5.12
2019-04-29T09:29:31.836Z,6.37
2019-04-29T09:32:02.019Z,8.60
2019-04-29T09:34:31.925Z,5.40
2019-04-29T09:37:02.101Z,8.38
2019-04-29T09:39:43.069Z,13.83
2019-04-29T09:42:30.752Z,7.70
2019-04-29T09:45:19.554Z,6.55
2019-04-29T09:47:49.387Z,8.75
2019-04-29T09:50:19.828Z,11.20
2019-04-29T09:52:50.320Z,11.15
2019-04-29T09:55:21.421Z,8.13
2019-04-29T09:57:51.250Z,4.05
2019-04-29T10:00:52.928Z,11.18
2019-04-29T10:03:31.377Z,10.78
2019-04-29T10:06:08.166Z,9.90
2019-04-29T10:08:38.015Z,7.62
2019-04-29T10:11:08.719Z,6.67
2019-04-29T10:13:38.920Z,6.20
2019-04-29T10:16:16.524Z,7.87
2019-04-29T10:18:53.952Z,8.55
2019-04-29T10:21:24.246Z,5.58
2019-04-29T10:23:54.188Z,7.78
2019-04-29T10:26:25.077Z,10.00
2019-04-29T10:28:59.136Z,4.92
2019-04-29T10:31:29.228Z,3.45
2019-04-29T10:34:00.158Z,3.40
2019-04-29T10:36:30.401Z,4.92
2019-04-29T10:39:04.905Z,4.33
2019-04-29T10:41:40.371Z,6.37
2019-04-29T10:44:31.734Z,5.53
2019-04-29T10:47:34.804Z,3.92
2019-04-29T10:50:15.516Z,5.83
2019-04-29T10:52:46.383Z,6.70
2019-04-29T10:55:17.863Z,4.72
2019-04-29T10:57:49.709Z,8.78
2019-04-29T11:00:35.991Z,9.80
2019-04-29T11:03:06.164Z,9.75
2019-04-29T11:05:38.848Z,7.65
2019-04-29T11:08:20.952Z,7.78
2019-04-29T11:10:50.814Z,8.88
2019-04-29T11:13:20.725Z,11.22
2019-04-29T11:15:51.260Z,7.45
2019-04-29T11:18:23.339Z,6.22
2019-04-29T11:20:55.322Z,7.33
2019-04-29T11:23:37.202Z,11.08
2019-04-29T11:26:25.278Z,13.13
2019-04-29T11:28:56.921Z,5.45
2019-04-29T11:31:27.029Z,10.08
2019-04-29T11:34:11.497Z,6.03
2019-04-29T11:36:44.068Z,5.58
2019-04-29T11:39:15.701Z,12.73
2019-04-29T11:41:49.942Z,8.63
2019-04-29T11:44:21.837Z,4.37
2019-04-29T11:46:51.675Z,8.63
2019-04-29T11:49:27.451Z,13.62
2019-04-29T11:52:09.044Z,8.28
2019-04-29T11:54:29.226Z,6.33
2019-04-29T11:56:59.200Z,8.88
2019-04-29T11:59:37.408Z,5.25
2019-04-29T12:02:44.143Z,9.10
2019-04-29T12:05:04.187Z,5.62
2019-04-29T12:07:34.164Z,6.40
2019-04-29T12:10:06.512Z,8.58
2019-04-29T12:12:36.942Z,5.90
2019-04-29T12:15:23.110Z,5.42
2019-04-29T12:18:04.274Z,7.92
2019-04-29T12:20:51.617Z,7.85
2019-04-29T12:23:21.763Z,12.45
2019-04-29T12:25:52.138Z,7.30
2019-04-29T12:28:22.119Z,3.77
2019-04-29T12:30:54.881Z,3.80
2019-04-29T12:33:36.937Z,3.80
2019-04-29T12:36:11.164Z,5.35
2019-04-29T12:38:58.599Z,5.80
2019-04-29T12:41:49.290Z,6.15
2019-04-29T12:44:34.629Z,8.48
2019-04-29T12:47:02.449Z,7.05
2019-04-29T12:49:32.388Z,7.80
2019-04-29T12:52:02.292Z,6.00
2019-04-29T12:54:32.176Z,6.37
2019-04-29T12:57:02.065Z,5.17
2019-04-29T12:59:35.577Z,6.08
2019-04-29T13:02:24.267Z,5.28
2019-04-29T13:05:00.801Z,8.75
2019-04-29T13:07:56.111Z,2.80
2019-04-29T13:10:42.324Z,5.50
2019-04-29T13:13:15.759Z,5.30
2019-04-29T13:15:54.492Z,3.98
2019-04-29T13:18:34.626Z,2.80
2019-04-29T13:21:10.261Z,7.05
2019-04-29T13:23:53.560Z,5.90
2019-04-29T13:26:08.202Z,3.27
2019-04-29T13:31:11.290Z,4.95
2019-04-29T13:33:22.638Z,5.05
2019-04-29T13:33:41.351Z,5.75
2019-04-29T13:36:11.541Z,4.42
2019-04-29T13:38:42.823Z,6.53
2019-04-29T13:41:18.558Z,6.30
2019-04-29T13:43:45.010Z,5.20
2019-04-29T13:46:28.430Z,7.53
2019-04-29T13:49:23.569Z,2.45
2019-04-29T13:51:54.368Z,3.77
2019-04-29T13:54:24.431Z,4.20
2019-04-29T13:56:56.714Z,3.35
2019-04-29T13:59:33.661Z,4.15
2019-04-29T14:02:31.432Z,4.67
2019-04-29T14:05:00.176Z,2.92
2019-04-29T14:07:30.769Z,2.35
2019-04-29T14:10:01.168Z,3.42
2019-04-29T14:12:48.748Z,4.00
2019-04-29T14:15:03.006Z,5.00
2019-04-29T14:17:35.622Z,8.75
2019-04-29T14:20:05.354Z,7.67
2019-04-29T14:22:35.224Z,6.53
2019-04-29T14:25:05.277Z,3.55
2019-04-29T14:27:35.170Z,6.12
2019-04-29T14:30:10.440Z,9.13
2019-04-29T14:32:42.380Z,7.90
2019-04-29T14:35:19.703Z,8.23
2019-04-29T14:37:55.319Z,11.78
2019-04-29T14:40:21.524Z,8.48
2019-04-29T14:43:26.270Z,4.80
2019-04-29T14:46:15.995Z,4.95
2019-04-29T14:48:45.627Z,4.50
2019-04-29T14:51:15.527Z,5.90
2019-04-29T14:53:56.391Z,3.62
2019-04-29T14:56:17.401Z,3.12
2019-04-29T14:58:47.571Z,5.08
2019-04-29T15:01:28.716Z,4.75
2019-04-29T15:04:17.294Z,5.92
2019-04-29T15:06:35.168Z,7.12
2019-04-29T15:09:08.727Z,5.05
2019-04-29T15:11:47.388Z,5.33
2019-04-29T15:14:48.130Z,6.40
2019-04-29T15:17:44.950Z,6.72
2019-04-29T15:23:05.066Z,4.65
2019-04-29T15:25:34.936Z,4.47
2019-04-29T15:28:04.886Z,8.80
2019-04-29T15:30:36.875Z,3.70
2019-04-29T15:33:07.926Z,10.23
2019-04-29T15:35:38.173Z,7.65
2019-04-29T15:38:08.944Z,6.80
2019-04-29T15:40:43.039Z,5.70
2019-04-29T15:43:11.050Z,6.42
2019-04-29T15:45:41.028Z,3.87
2019-04-29T15:48:10.941Z,6.05
2019-04-29T15:50:40.751Z,5.22
2019-04-29T15:53:10.817Z,5.33
2019-04-29T15:55:42.170Z,3.62
2019-04-29T15:58:12.115Z,9.25
2019-04-29T16:00:43.483Z,6.55
2019-04-29T16:03:17.831Z,5.30
2019-04-29T16:06:19.793Z,6.40
2019-04-29T16:08:58.378Z,4.85
2019-04-29T16:11:42.652Z,7.62
2019-04-29T16:14:17.775Z,14.70
2019-04-29T16:16:47.759Z,5.15
2019-04-29T16:19:17.718Z,8.73
2019-04-29T16:21:47.583Z,9.30
2019-04-29T16:24:26.525Z,8.70
2019-04-29T16:26:53.447Z,5.75
2019-04-29T16:29:20.967Z,7.65
2019-04-29T16:31:54.942Z,7.10
2019-04-29T16:34:22.402Z,3.77
2019-04-29T16:36:52.688Z,3.58
2019-04-29T16:39:22.709Z,4.42
2019-04-29T16:42:11.044Z,6.67
2019-04-29T16:44:42.530Z,5.53
2019-04-29T16:47:13.659Z,6.33
2019-04-29T16:49:44.544Z,11.65
2019-04-29T16:52:14.813Z,8.95
2019-04-29T16:54:44.676Z,9.85
2019-04-29T16:57:14.815Z,9.45
2019-04-29T16:59:44.584Z,9.25
2019-04-29T17:02:19.427Z,5.45
2019-04-29T17:04:46.113Z,5.53
2019-04-29T17:07:17.059Z,6.15
2019-04-29T17:10:09.028Z,9.80
2019-04-29T17:12:42.851Z,7.65
2019-04-29T17:15:24.220Z,7.42
2019-04-29T17:17:44.989Z,7.33
2019-04-29T17:20:15.566Z,9.03
2019-04-29T17:22:45.599Z,7.67
2019-04-29T17:25:15.693Z,7.90
2019-04-29T17:27:55.743Z,5.87
2019-04-29T17:30:54.444Z,6.83
2019-04-29T17:33:49.711Z,5.72
2019-04-29T17:36:22.930Z,4.67
2019-04-29T17:38:47.518Z,7.85
2019-04-29T17:41:17.352Z,6.83
2019-04-29T17:44:14.485Z,5.62
2019-04-29T17:47:02.706Z,9.88
2019-04-29T17:49:54.793Z,12.05
2019-04-29T17:52:27.994Z,11.73
2019-04-29T17:55:05.827Z,8.83
2019-04-29T17:57:43.401Z,9.53
2019-04-29T18:00:43.746Z,6.05
2019-04-29T18:03:41.186Z,7.65
2019-04-29T18:06:12.607Z,6.92
2019-04-29T18:09:04.937Z,18.50
2019-04-29T18:11:49.610Z,18.75
2019-04-29T18:14:09.454Z,10.78
2019-04-29T18:16:43.652Z,16.57
2019-04-29T18:19:19.892Z,9.85
2019-04-29T18:22:18.091Z,11.08
2019-04-29T18:24:56.831Z,14.63
2019-04-29T18:27:27.788Z,8.98
2019-04-29T18:29:58.036Z,19.60
2019-04-29T18:32:35.651Z,15.43
2019-04-29T18:34:59.899Z,12.05
2019-04-29T18:37:30.372Z,12.93
2019-04-29T18:40:03.390Z,21.95
2019-04-29T18:42:33.761Z,12.93
2019-04-29T18:45:05.086Z,11.97
2019-04-29T18:47:38.615Z,7.95
2019-04-29T18:50:09.046Z,17.52
2019-04-29T18:52:38.862Z,18.15
2019-04-29T18:55:08.891Z,22.93
2019-04-29T18:57:39.131Z,16.37
2019-04-29T19:00:12.092Z,13.58
2019-04-29T19:02:47.355Z,23.87
2019-04-29T19:05:21.371Z,15.78
2019-04-29T19:07:55.150Z,19.82
2019-04-29T19:10:32.979Z,27.40
2019-04-29T19:12:59.774Z,18.20
2019-04-29T19:15:27.677Z,13.83
2019-04-29T19:17:59.777Z,11.43
2019-04-29T19:20:29.151Z,18.77
2019-04-29T19:23:05.681Z,20.90
2019-04-29T19:25:32.402Z,16.27
2019-04-29T19:28:11.943Z,10.20
2019-04-29T19:30:35.641Z,13.60
2019-04-29T19:33:08.797Z,18.48
2019-04-29T19:35:38.703Z,16.17
2019-04-29T19:38:12.458Z,27.37
2019-04-29T19:40:42.642Z,20.77
2019-04-29T19:43:15.364Z,27.35
2019-04-29T19:45:48.846Z,18.82
2019-04-29T19:48:16.536Z,17.23
2019-04-29T19:50:50.094Z,15.30
2019-04-29T19:53:18.457Z,18.52
2019-04-29T19:55:48.422Z,17.27
2019-04-29T19:58:28.265Z,24.75
2019-04-29T20:00:51.490Z,15.78
2019-04-29T20:03:25.189Z,15.38
2019-04-29T20:06:07.998Z,15.18
2019-04-29T20:08:50.094Z,21.97
2019-04-29T20:11:12.285Z,20.70
2019-04-29T20:13:39.658Z,26.70
2019-04-29T20:16:23.002Z,15.72
2019-04-29T20:19:15.208Z,19.25
2019-04-29T20:21:37.980Z,11.10
2019-04-29T20:24:09.810Z,10.28
2019-04-29T20:26:43.558Z,21.35
2019-04-29T20:29:11.661Z,16.82
2019-04-29T20:31:48.520Z,24.60
2019-04-29T20:34:13.571Z,18.95
2019-04-29T20:36:45.523Z,21.15
2019-04-29T20:39:20.758Z,19.00
2019-04-29T20:41:48.853Z,14.47
2019-04-29T20:44:18.846Z,20.15
2019-04-29T20:47:12.702Z,19.10
2019-04-29T20:49:20.796Z,17.35
2019-04-29T20:51:55.608Z,15.50
2019-04-29T20:54:27.703Z,13.50
2019-04-29T20:57:04.942Z,16.52
2019-04-29T20:59:30.266Z,20.82
2019-04-29T21:02:12.073Z,26.62
2019-04-29T21:04:39.300Z,24.13
2019-04-29T21:07:07.040Z,18.73
2019-04-29T21:09:37.136Z,24.95
2019-04-29T21:12:20.997Z,17.30
2019-04-29T21:14:56.217Z,12.00
2019-04-29T21:17:30.679Z,28.32
2019-04-29T21:19:57.184Z,19.15
2019-04-29T21:22:27.455Z,24.18
2019-04-29T21:24:57.750Z,28.80
2019-04-29T21:27:27.741Z,17.73
2019-04-29T21:29:57.764Z,19.50
2019-04-29T21:32:30.504Z,26.25
2019-04-29T21:35:10.210Z,23.80
2019-04-29T21:37:48.061Z,15.38
2019-04-29T21:40:31.855Z,22.70
2019-04-29T21:43:13.670Z,17.30
2019-04-29T21:45:44.965Z,18.05
2019-04-29T21:48:13.106Z,12.35
2019-04-29T21:50:44.824Z,15.68
2019-04-29T21:53:15.804Z,10.25
2019-04-29T21:55:45.959Z,10.32
2019-04-29T21:58:15.905Z,10.78
2019-04-29T22:00:45.928Z,17.73
2019-04-29T22:03:19.813Z,12.05
2019-04-29T22:05:49.326Z,21.25
2019-04-29T22:08:25.096Z,11.68
2019-04-29T22:10:52.510Z,12.23
2019-04-29T22:13:22.696Z,15.78
2019-04-29T22:15:52.751Z,23.22
2019-04-29T22:18:22.648Z,28.25
2019-04-29T22:20:52.660Z,17.80
2019-04-29T22:23:22.689Z,14.00
2019-04-29T22:25:54.738Z,15.43
2019-04-29T22:28:24.893Z,12.03
2019-04-29T22:30:56.201Z,11.53
2019-04-29T22:33:29.694Z,15.38
2019-04-29T22:35:58.208Z,16.52
2019-04-29T22:38:28.151Z,14.30
2019-04-29T22:41:00.283Z,14.80
2019-04-29T22:43:48.475Z,19.80
2019-04-29T22:46:18.330Z,16.37
2019-04-29T22:48:48.844Z,11.80
2019-04-29T22:51:19.199Z,13.18
2019-04-29T22:53:48.915Z,20.72
2019-04-29T22:56:18.959Z,24.70
2019-04-29T22:58:48.827Z,18.67
2019-04-29T23:01:18.865Z,12.70
2019-04-29T23:03:48.901Z,17.70
2019-04-29T23:06:18.715Z,11.20
2019-04-29T23:08:48.586Z,12.70
2019-04-29T23:11:19.925Z,19.30
2019-04-29T23:13:49.918Z,12.35
2019-04-29T23:16:20.131Z,19.80
2019-04-29T23:18:50.159Z,22.20
2019-04-29T23:21:45.016Z,23.32
2019-04-29T23:24:30.040Z,11.38
2019-04-29T23:27:00.001Z,16.48
2019-04-29T23:29:30.026Z,15.20
2019-04-29T23:32:04.728Z,13.70
2019-04-29T23:34:31.563Z,12.73
2019-04-29T23:37:01.454Z,10.20
2019-04-29T23:39:31.468Z,18.25
2019-04-29T23:42:04.730Z,12.23
2019-04-29T23:44:32.939Z,12.85
2019-04-29T23:47:05.326Z,13.22
2019-04-29T23:49:35.420Z,10.85
2019-04-29T23:52:06.773Z,14.38
2019-04-29T23:54:44.210Z,12.55
2019-04-29T23:57:25.518Z,17.12
